sensor_id;sensor_type;location;lat;lon;timestamp;P1;durP1;ratioP1;P2;durP2;ratioP2
489;SDS011;231;48.120;11.576;2023-04-28T00:01:17;6.07;;;5.77;;
489;SDS011;231;48.120;11.576;2023-04-28T00:03:44;5.07;;;4.77;;
489;SDS011;231;48.120;11.576;2023-04-28T00:06:12;5.20;;;4.90;;
489;SDS011;231;48.120;11.576;2023-04-28T00:08:40;5.20;;;4.90;;
489;SDS011;231;48.120;11.576;2023-04-28T00:11:08;4.63;;;4.33;;
489;SDS011;231;48.120;11.576;2023-04-28T00:13:35;4.60;;;4.30;;
489;SDS011;231;48.120;11.576;2023-04-28T00:16:02;5.03;;;4.73;;
489;SDS011;231;48.120;11.576;2023-04-28T00:18:29;4.53;;;4.00;;
489;SDS011;231;48.120;11.576;2023-04-28T00:20:57;3.90;;;3.70;;
489;SDS011;231;48.120;11.576;2023-04-28T00:23:24;5.20;;;4.90;;
489;SDS011;231;48.120;11.576;2023-04-28T00:25:52;3.73;;;3.53;;
489;SDS011;231;48.120;11.576;2023-04-28T00:28:21;3.67;;;3.47;;
489;SDS011;231;48.120;11.576;2023-04-28T00:30:48;4.60;;;4.30;;
489;SDS011;231;48.120;11.576;2023-04-28T00:33:15;4.53;;;4.23;;
489;SDS011;231;48.120;11.576;2023-04-28T00:35:42;5.17;;;4.87;;
489;SDS011;231;48.120;11.576;2023-04-28T00:38:09;3.63;;;3.43;;
489;SDS011;231;48.120;11.576;2023-04-28T00:40:36;4.27;;;4.00;;
489;SDS011;231;48.120;11.576;2023-04-28T00:43:05;5.27;;;3.80;;
489;SDS011;231;48.120;11.576;2023-04-28T00:45:32;5.43;;;4.10;;
489;SDS011;231;48.120;11.576;2023-04-28T00:48:00;4.83;;;4.53;;
489;SDS011;231;48.120;11.576;2023-04-28T00:50:27;3.70;;;3.50;;
489;SDS011;231;48.120;11.576;2023-04-28T00:52:54;4.53;;;4.23;;
489;SDS011;231;48.120;11.576;2023-04-28T00:55:21;4.30;;;4.00;;
489;SDS011;231;48.120;11.576;2023-04-28T00:57:51;4.07;;;3.87;;
489;SDS011;231;48.120;11.576;2023-04-28T01:00:21;4.87;;;4.57;;
489;SDS011;231;48.120;11.576;2023-04-28T01:02:48;3.83;;;3.63;;
489;SDS011;231;48.120;11.576;2023-04-28T01:05:16;4.57;;;4.27;;
489;SDS011;231;48.120;11.576;2023-04-28T01:07:44;4.23;;;3.97;;
489;SDS011;231;48.120;11.576;2023-04-28T01:10:11;4.33;;;3.83;;
489;SDS011;231;48.120;11.576;2023-04-28T01:12:38;4.67;;;4.37;;
489;SDS011;231;48.120;11.576;2023-04-28T01:15:05;3.37;;;3.17;;
489;SDS011;231;48.120;11.576;2023-04-28T01:17:36;4.13;;;3.90;;
489;SDS011;231;48.120;11.576;2023-04-28T01:20:04;4.40;;;3.70;;
489;SDS011;231;48.120;11.576;2023-04-28T01:22:32;3.53;;;3.33;;
489;SDS011;231;48.120;11.576;2023-04-28T01:25:00;3.30;;;3.10;;
489;SDS011;231;48.120;11.576;2023-04-28T01:27:28;3.77;;;3.57;;
489;SDS011;231;48.120;11.576;2023-04-28T01:29:55;6.90;;;3.53;;
489;SDS011;231;48.120;11.576;2023-04-28T01:32:22;6.57;;;3.30;;
489;SDS011;231;48.120;11.576;2023-04-28T01:34:49;4.33;;;4.03;;
489;SDS011;231;48.120;11.576;2023-04-28T01:37:16;3.50;;;3.30;;
489;SDS011;231;48.120;11.576;2023-04-28T01:39:43;3.67;;;3.47;;
489;SDS011;231;48.120;11.576;2023-04-28T01:42:11;5.63;;;3.73;;
489;SDS011;231;48.120;11.576;2023-04-28T01:44:38;3.13;;;3.00;;
489;SDS011;231;48.120;11.576;2023-04-28T01:47:05;6.07;;;3.63;;
489;SDS011;231;48.120;11.576;2023-04-28T01:49:32;5.97;;;3.33;;
489;SDS011;231;48.120;11.576;2023-04-28T01:51:59;3.50;;;3.30;;
489;SDS011;231;48.120;11.576;2023-04-28T01:54:25;3.20;;;3.00;;
489;SDS011;231;48.120;11.576;2023-04-28T01:56:52;3.50;;;3.30;;
489;SDS011;231;48.120;11.576;2023-04-28T01:59:20;3.30;;;3.10;;
489;SDS011;231;48.120;11.576;2023-04-28T02:01:47;2.93;;;2.70;;
489;SDS011;231;48.120;11.576;2023-04-28T02:04:15;2.87;;;2.67;;
489;SDS011;231;48.120;11.576;2023-04-28T02:06:41;3.87;;;3.30;;
489;SDS011;231;48.120;11.576;2023-04-28T02:09:08;3.20;;;3.00;;
489;SDS011;231;48.120;11.576;2023-04-28T02:11:35;4.40;;;2.80;;
489;SDS011;231;48.120;11.576;2023-04-28T02:14:02;4.20;;;3.53;;
489;SDS011;231;48.120;11.576;2023-04-28T02:16:31;4.60;;;2.80;;
489;SDS011;231;48.120;11.576;2023-04-28T02:18:58;3.77;;;3.57;;
489;SDS011;231;48.120;11.576;2023-04-28T02:21:25;4.10;;;3.90;;
489;SDS011;231;48.120;11.576;2023-04-28T02:23:52;2.80;;;2.60;;
489;SDS011;231;48.120;11.576;2023-04-28T02:26:19;3.47;;;3.27;;
489;SDS011;231;48.120;11.576;2023-04-28T02:28:46;3.33;;;2.80;;
489;SDS011;231;48.120;11.576;2023-04-28T02:31:13;4.13;;;3.90;;
489;SDS011;231;48.120;11.576;2023-04-28T02:33:41;3.63;;;3.50;;
489;SDS011;231;48.120;11.576;2023-04-28T02:36:09;3.70;;;3.50;;
489;SDS011;231;48.120;11.576;2023-04-28T02:38:36;3.60;;;3.40;;
489;SDS011;231;48.120;11.576;2023-04-28T02:41:05;4.43;;;4.13;;
489;SDS011;231;48.120;11.576;2023-04-28T02:43:33;4.33;;;4.07;;
489;SDS011;231;48.120;11.576;2023-04-28T02:46:01;4.40;;;4.10;;
489;SDS011;231;48.120;11.576;2023-04-28T02:48:28;3.87;;;3.67;;
489;SDS011;231;48.120;11.576;2023-04-28T02:50:57;4.47;;;4.17;;
489;SDS011;231;48.120;11.576;2023-04-28T02:53:24;5.27;;;4.93;;
489;SDS011;231;48.120;11.576;2023-04-28T02:55:51;4.73;;;4.43;;
489;SDS011;231;48.120;11.576;2023-04-28T02:58:19;4.80;;;4.50;;
489;SDS011;231;48.120;11.576;2023-04-28T03:00:46;4.10;;;3.90;;
489;SDS011;231;48.120;11.576;2023-04-28T03:03:13;5.03;;;4.73;;
489;SDS011;231;48.120;11.576;2023-04-28T03:05:40;3.70;;;3.50;;
489;SDS011;231;48.120;11.576;2023-04-28T03:08:08;4.90;;;4.60;;
489;SDS011;231;48.120;11.576;2023-04-28T03:10:35;5.13;;;4.83;;
489;SDS011;231;48.120;11.576;2023-04-28T03:13:02;4.60;;;4.30;;
489;SDS011;231;48.120;11.576;2023-04-28T03:15:29;4.60;;;4.30;;
489;SDS011;231;48.120;11.576;2023-04-28T03:17:56;5.03;;;4.73;;
489;SDS011;231;48.120;11.576;2023-04-28T03:20:23;6.57;;;3.93;;
489;SDS011;231;48.120;11.576;2023-04-28T03:22:50;4.50;;;4.20;;
489;SDS011;231;48.120;11.576;2023-04-28T03:25:19;4.53;;;4.23;;
489;SDS011;231;48.120;11.576;2023-04-28T03:27:46;4.80;;;4.50;;
489;SDS011;231;48.120;11.576;2023-04-28T03:30:13;5.27;;;4.97;;
489;SDS011;231;48.120;11.576;2023-04-28T03:32:40;4.80;;;4.50;;
489;SDS011;231;48.120;11.576;2023-04-28T03:35:07;5.40;;;5.10;;
489;SDS011;231;48.120;11.576;2023-04-28T03:37:35;4.87;;;4.57;;
489;SDS011;231;48.120;11.576;2023-04-28T03:40:02;5.60;;;5.30;;
489;SDS011;231;48.120;11.576;2023-04-28T03:42:31;6.40;;;6.00;;
489;SDS011;231;48.120;11.576;2023-04-28T03:44:58;4.77;;;4.27;;
489;SDS011;231;48.120;11.576;2023-04-28T03:47:25;4.13;;;3.90;;
489;SDS011;231;48.120;11.576;2023-04-28T03:49:52;4.53;;;4.23;;
489;SDS011;231;48.120;11.576;2023-04-28T03:52:20;5.93;;;4.67;;
489;SDS011;231;48.120;11.576;2023-04-28T03:54:47;3.60;;;3.40;;
489;SDS011;231;48.120;11.576;2023-04-28T03:57:14;4.80;;;4.50;;
489;SDS011;231;48.120;11.576;2023-04-28T03:59:42;4.97;;;4.60;;
489;SDS011;231;48.120;11.576;2023-04-28T04:02:09;4.23;;;3.97;;
489;SDS011;231;48.120;11.576;2023-04-28T04:04:36;4.83;;;4.53;;
489;SDS011;231;48.120;11.576;2023-04-28T04:07:03;5.13;;;4.83;;
489;SDS011;231;48.120;11.576;2023-04-28T04:09:30;4.57;;;4.27;;
489;SDS011;231;48.120;11.576;2023-04-28T04:11:57;5.20;;;4.90;;
489;SDS011;231;48.120;11.576;2023-04-28T04:14:25;4.43;;;4.13;;
489;SDS011;231;48.120;11.576;2023-04-28T04:16:53;4.73;;;4.47;;
489;SDS011;231;48.120;11.576;2023-04-28T04:19:20;4.97;;;4.67;;
489;SDS011;231;48.120;11.576;2023-04-28T04:21:48;4.47;;;4.17;;
489;SDS011;231;48.120;11.576;2023-04-28T04:24:15;5.13;;;4.83;;
489;SDS011;231;48.120;11.576;2023-04-28T04:26:42;4.07;;;3.87;;
489;SDS011;231;48.120;11.576;2023-04-28T04:29:09;4.63;;;4.33;;
489;SDS011;231;48.120;11.576;2023-04-28T04:31:36;4.90;;;4.60;;
489;SDS011;231;48.120;11.576;2023-04-28T04:34:05;4.80;;;4.30;;
489;SDS011;231;48.120;11.576;2023-04-28T04:36:32;4.23;;;3.93;;
489;SDS011;231;48.120;11.576;2023-04-28T04:38:59;4.43;;;4.13;;
489;SDS011;231;48.120;11.576;2023-04-28T04:41:26;4.37;;;4.03;;
489;SDS011;231;48.120;11.576;2023-04-28T04:43:53;5.43;;;5.13;;
489;SDS011;231;48.120;11.576;2023-04-28T04:46:20;5.10;;;4.80;;
489;SDS011;231;48.120;11.576;2023-04-28T04:48:47;4.80;;;4.50;;
489;SDS011;231;48.120;11.576;2023-04-28T04:51:15;4.80;;;4.50;;
489;SDS011;231;48.120;11.576;2023-04-28T04:53:42;6.00;;;5.70;;
489;SDS011;231;48.120;11.576;2023-04-28T04:56:09;5.30;;;5.00;;
489;SDS011;231;48.120;11.576;2023-04-28T04:58:36;5.90;;;5.60;;
489;SDS011;231;48.120;11.576;2023-04-28T05:01:03;7.50;;;7.10;;
489;SDS011;231;48.120;11.576;2023-04-28T05:03:30;5.90;;;5.60;;
489;SDS011;231;48.120;11.576;2023-04-28T05:05:57;6.77;;;6.37;;
489;SDS011;231;48.120;11.576;2023-04-28T05:08:26;5.70;;;5.40;;
489;SDS011;231;48.120;11.576;2023-04-28T05:10:54;6.20;;;5.90;;
489;SDS011;231;48.120;11.576;2023-04-28T05:13:22;8.60;;;5.33;;
489;SDS011;231;48.120;11.576;2023-04-28T05:15:49;4.13;;;3.90;;
489;SDS011;231;48.120;11.576;2023-04-28T05:18:16;4.73;;;4.43;;
489;SDS011;231;48.120;11.576;2023-04-28T05:20:43;4.47;;;4.17;;
489;SDS011;231;48.120;11.576;2023-04-28T05:23:09;5.80;;;5.50;;
489;SDS011;231;48.120;11.576;2023-04-28T05:25:38;5.83;;;5.47;;
489;SDS011;231;48.120;11.576;2023-04-28T05:28:06;5.27;;;4.97;;
489;SDS011;231;48.120;11.576;2023-04-28T05:30:34;5.10;;;4.80;;
489;SDS011;231;48.120;11.576;2023-04-28T05:33:01;5.57;;;5.27;;
489;SDS011;231;48.120;11.576;2023-04-28T05:35:28;5.37;;;5.07;;
489;SDS011;231;48.120;11.576;2023-04-28T05:37:56;4.73;;;4.43;;
489;SDS011;231;48.120;11.576;2023-04-28T05:40:23;5.07;;;4.63;;
489;SDS011;231;48.120;11.576;2023-04-28T05:42:51;5.27;;;4.97;;
489;SDS011;231;48.120;11.576;2023-04-28T05:45:18;5.23;;;4.50;;
489;SDS011;231;48.120;11.576;2023-04-28T05:47:45;4.97;;;4.40;;
489;SDS011;231;48.120;11.576;2023-04-28T05:50:12;5.60;;;5.30;;
489;SDS011;231;48.120;11.576;2023-04-28T05:52:39;4.67;;;4.10;;
489;SDS011;231;48.120;11.576;2023-04-28T05:55:07;4.60;;;4.30;;
489;SDS011;231;48.120;11.576;2023-04-28T05:57:38;4.27;;;4.00;;
489;SDS011;231;48.120;11.576;2023-04-28T06:00:40;5.70;;;4.23;;
489;SDS011;231;48.120;11.576;2023-04-28T06:03:08;3.67;;;3.47;;
489;SDS011;231;48.120;11.576;2023-04-28T06:05:39;7.73;;;3.90;;
489;SDS011;231;48.120;11.576;2023-04-28T06:08:08;3.63;;;3.43;;
489;SDS011;231;48.120;11.576;2023-04-28T06:10:35;4.30;;;3.63;;
489;SDS011;231;48.120;11.576;2023-04-28T06:13:02;4.63;;;4.23;;
489;SDS011;231;48.120;11.576;2023-04-28T06:15:30;3.30;;;3.00;;
489;SDS011;231;48.120;11.576;2023-04-28T06:17:59;4.10;;;3.90;;
489;SDS011;231;48.120;11.576;2023-04-28T06:20:27;5.73;;;3.60;;
489;SDS011;231;48.120;11.576;2023-04-28T06:22:54;5.07;;;4.77;;
489;SDS011;231;48.120;11.576;2023-04-28T06:25:21;4.20;;;3.77;;
489;SDS011;231;48.120;11.576;2023-04-28T06:27:48;5.60;;;5.30;;
489;SDS011;231;48.120;11.576;2023-04-28T06:30:16;5.27;;;4.97;;
489;SDS011;231;48.120;11.576;2023-04-28T06:32:44;5.07;;;4.77;;
489;SDS011;231;48.120;11.576;2023-04-28T06:35:13;4.80;;;4.50;;
489;SDS011;231;48.120;11.576;2023-04-28T06:37:41;4.77;;;4.47;;
489;SDS011;231;48.120;11.576;2023-04-28T06:40:08;4.10;;;3.90;;
489;SDS011;231;48.120;11.576;2023-04-28T06:42:36;4.57;;;4.30;;
489;SDS011;231;48.120;11.576;2023-04-28T06:45:03;5.03;;;4.73;;
489;SDS011;231;48.120;11.576;2023-04-28T06:47:31;4.60;;;4.30;;
489;SDS011;231;48.120;11.576;2023-04-28T06:49:58;5.63;;;4.57;;
489;SDS011;231;48.120;11.576;2023-04-28T06:52:27;4.70;;;4.00;;
489;SDS011;231;48.120;11.576;2023-04-28T06:54:54;4.90;;;4.60;;
489;SDS011;231;48.120;11.576;2023-04-28T06:57:21;3.77;;;3.50;;
489;SDS011;231;48.120;11.576;2023-04-28T06:59:48;3.83;;;2.97;;
489;SDS011;231;48.120;11.576;2023-04-28T07:02:15;5.27;;;4.97;;
489;SDS011;231;48.120;11.576;2023-04-28T07:04:42;4.10;;;3.23;;
489;SDS011;231;48.120;11.576;2023-04-28T07:07:09;3.57;;;3.37;;
489;SDS011;231;48.120;11.576;2023-04-28T07:09:38;3.30;;;3.10;;
489;SDS011;231;48.120;11.576;2023-04-28T07:12:05;3.27;;;2.77;;
489;SDS011;231;48.120;11.576;2023-04-28T07:14:32;3.70;;;3.50;;
489;SDS011;231;48.120;11.576;2023-04-28T07:16:59;5.20;;;3.10;;
489;SDS011;231;48.120;11.576;2023-04-28T07:19:26;3.30;;;2.97;;
489;SDS011;231;48.120;11.576;2023-04-28T07:21:53;2.67;;;2.47;;
489;SDS011;231;48.120;11.576;2023-04-28T07:24:20;2.20;;;2.00;;
489;SDS011;231;48.120;11.576;2023-04-28T07:26:49;2.83;;;2.20;;
489;SDS011;231;48.120;11.576;2023-04-28T07:29:17;2.53;;;2.33;;
489;SDS011;231;48.120;11.576;2023-04-28T07:31:44;2.30;;;2.10;;
489;SDS011;231;48.120;11.576;2023-04-28T07:34:11;3.33;;;2.10;;
489;SDS011;231;48.120;11.576;2023-04-28T07:36:38;2.70;;;2.47;;
489;SDS011;231;48.120;11.576;2023-04-28T07:39:05;2.67;;;2.47;;
489;SDS011;231;48.120;11.576;2023-04-28T07:41:35;2.40;;;2.20;;
489;SDS011;231;48.120;11.576;2023-04-28T07:44:04;1.83;;;1.73;;
489;SDS011;231;48.120;11.576;2023-04-28T07:46:32;2.70;;;2.50;;
489;SDS011;231;48.120;11.576;2023-04-28T07:49:08;2.30;;;2.10;;
489;SDS011;231;48.120;11.576;2023-04-28T07:51:35;2.13;;;1.97;;
489;SDS011;231;48.120;11.576;2023-04-28T07:54:02;2.40;;;2.13;;
489;SDS011;231;48.120;11.576;2023-04-28T07:56:29;2.93;;;2.73;;
489;SDS011;231;48.120;11.576;2023-04-28T07:58:56;2.20;;;2.00;;
489;SDS011;231;48.120;11.576;2023-04-28T08:01:24;2.80;;;2.10;;
489;SDS011;231;48.120;11.576;2023-04-28T08:03:51;1.90;;;1.83;;
489;SDS011;231;48.120;11.576;2023-04-28T08:06:18;2.50;;;2.30;;
489;SDS011;231;48.120;11.576;2023-04-28T08:08:45;2.40;;;2.20;;
489;SDS011;231;48.120;11.576;2023-04-28T08:11:12;2.63;;;2.43;;
489;SDS011;231;48.120;11.576;2023-04-28T08:13:39;2.60;;;2.40;;
489;SDS011;231;48.120;11.576;2023-04-28T08:16:06;3.53;;;2.67;;
489;SDS011;231;48.120;11.576;2023-04-28T08:18:34;2.90;;;2.77;;
489;SDS011;231;48.120;11.576;2023-04-28T08:21:01;3.83;;;3.63;;
489;SDS011;231;48.120;11.576;2023-04-28T08:23:28;3.87;;;3.47;;
489;SDS011;231;48.120;11.576;2023-04-28T08:25:56;3.80;;;3.60;;
489;SDS011;231;48.120;11.576;2023-04-28T08:28:22;3.93;;;3.73;;
489;SDS011;231;48.120;11.576;2023-04-28T08:30:50;3.37;;;3.17;;
489;SDS011;231;48.120;11.576;2023-04-28T08:33:18;3.53;;;3.33;;
489;SDS011;231;48.120;11.576;2023-04-28T08:35:46;2.93;;;2.77;;
489;SDS011;231;48.120;11.576;2023-04-28T08:38:13;3.63;;;3.43;;
489;SDS011;231;48.120;11.576;2023-04-28T08:40:42;3.00;;;2.80;;
489;SDS011;231;48.120;11.576;2023-04-28T08:43:09;6.73;;;3.57;;
489;SDS011;231;48.120;11.576;2023-04-28T08:45:39;4.20;;;2.90;;
489;SDS011;231;48.120;11.576;2023-04-28T08:48:12;2.67;;;2.47;;
489;SDS011;231;48.120;11.576;2023-04-28T08:50:47;2.70;;;2.50;;
489;SDS011;231;48.120;11.576;2023-04-28T08:53:18;3.23;;;3.00;;
489;SDS011;231;48.120;11.576;2023-04-28T08:55:49;2.50;;;2.33;;
489;SDS011;231;48.120;11.576;2023-04-28T08:58:19;3.00;;;2.83;;
489;SDS011;231;48.120;11.576;2023-04-28T09:00:47;3.07;;;2.87;;
489;SDS011;231;48.120;11.576;2023-04-28T09:03:14;3.70;;;3.50;;
489;SDS011;231;48.120;11.576;2023-04-28T09:05:42;3.70;;;3.50;;
489;SDS011;231;48.120;11.576;2023-04-28T09:08:10;3.83;;;3.57;;
489;SDS011;231;48.120;11.576;2023-04-28T09:10:37;3.17;;;2.83;;
489;SDS011;231;48.120;11.576;2023-04-28T09:13:04;3.03;;;2.83;;
489;SDS011;231;48.120;11.576;2023-04-28T09:15:32;3.40;;;3.20;;
489;SDS011;231;48.120;11.576;2023-04-28T09:18:00;4.37;;;4.07;;
489;SDS011;231;48.120;11.576;2023-04-28T09:20:28;2.80;;;2.60;;
489;SDS011;231;48.120;11.576;2023-04-28T09:23:11;3.30;;;3.00;;
489;SDS011;231;48.120;11.576;2023-04-28T09:25:54;2.73;;;2.53;;
489;SDS011;231;48.120;11.576;2023-04-28T09:28:22;2.93;;;2.60;;
489;SDS011;231;48.120;11.576;2023-04-28T09:30:49;2.87;;;2.67;;
489;SDS011;231;48.120;11.576;2023-04-28T09:33:16;3.33;;;2.40;;
489;SDS011;231;48.120;11.576;2023-04-28T09:35:43;4.70;;;2.63;;
489;SDS011;231;48.120;11.576;2023-04-28T09:38:11;9.63;;;3.00;;
489;SDS011;231;48.120;11.576;2023-04-28T09:40:50;4.20;;;2.90;;
489;SDS011;231;48.120;11.576;2023-04-28T09:43:25;3.23;;;2.87;;
489;SDS011;231;48.120;11.576;2023-04-28T09:45:53;2.77;;;2.57;;
489;SDS011;231;48.120;11.576;2023-04-28T09:48:27;2.57;;;2.37;;
489;SDS011;231;48.120;11.576;2023-04-28T09:50:56;2.90;;;2.30;;
489;SDS011;231;48.120;11.576;2023-04-28T09:53:25;3.67;;;2.80;;
489;SDS011;231;48.120;11.576;2023-04-28T09:55:53;2.37;;;2.17;;
489;SDS011;231;48.120;11.576;2023-04-28T09:58:24;2.80;;;2.60;;
489;SDS011;231;48.120;11.576;2023-04-28T10:00:53;3.07;;;2.87;;
489;SDS011;231;48.120;11.576;2023-04-28T10:03:21;3.63;;;3.00;;
489;SDS011;231;48.120;11.576;2023-04-28T10:05:49;4.13;;;3.90;;
489;SDS011;231;48.120;11.576;2023-04-28T10:08:20;3.40;;;3.20;;
489;SDS011;231;48.120;11.576;2023-04-28T10:10:52;2.70;;;2.50;;
489;SDS011;231;48.120;11.576;2023-04-28T10:13:21;3.93;;;2.77;;
489;SDS011;231;48.120;11.576;2023-04-28T10:15:48;3.80;;;2.20;;
489;SDS011;231;48.120;11.576;2023-04-28T10:18:18;3.17;;;1.73;;
489;SDS011;231;48.120;11.576;2023-04-28T10:20:48;12.97;;;3.77;;
489;SDS011;231;48.120;11.576;2023-04-28T10:23:26;2.50;;;1.73;;
489;SDS011;231;48.120;11.576;2023-04-28T10:26:09;3.67;;;2.13;;
489;SDS011;231;48.120;11.576;2023-04-28T10:28:43;4.07;;;2.20;;
489;SDS011;231;48.120;11.576;2023-04-28T10:31:12;2.40;;;2.20;;
489;SDS011;231;48.120;11.576;2023-04-28T10:33:40;2.90;;;2.23;;
489;SDS011;231;48.120;11.576;2023-04-28T10:36:07;2.57;;;2.37;;
489;SDS011;231;48.120;11.576;2023-04-28T10:41:37;3.00;;;2.80;;
489;SDS011;231;48.120;11.576;2023-04-28T10:47:09;3.30;;;3.10;;
489;SDS011;231;48.120;11.576;2023-04-28T10:52:47;1.97;;;1.90;;
489;SDS011;231;48.120;11.576;2023-04-28T10:55:30;3.10;;;2.20;;
489;SDS011;231;48.120;11.576;2023-04-28T11:03:50;3.67;;;2.70;;
489;SDS011;231;48.120;11.576;2023-04-28T11:06:28;2.20;;;1.77;;
489;SDS011;231;48.120;11.576;2023-04-28T11:12:23;2.43;;;2.23;;
489;SDS011;231;48.120;11.576;2023-04-28T11:14:55;3.33;;;3.13;;
489;SDS011;231;48.120;11.576;2023-04-28T11:17:32;3.80;;;3.53;;
489;SDS011;231;48.120;11.576;2023-04-28T11:20:11;11.03;;;4.03;;
489;SDS011;231;48.120;11.576;2023-04-28T11:22:39;3.17;;;2.63;;
489;SDS011;231;48.120;11.576;2023-04-28T11:25:07;8.93;;;3.13;;
489;SDS011;231;48.120;11.576;2023-04-28T11:27:34;3.70;;;2.53;;
489;SDS011;231;48.120;11.576;2023-04-28T11:30:22;3.10;;;2.57;;
489;SDS011;231;48.120;11.576;2023-04-28T11:32:52;4.50;;;2.20;;
489;SDS011;231;48.120;11.576;2023-04-28T11:35:20;2.30;;;2.10;;
489;SDS011;231;48.120;11.576;2023-04-28T11:37:59;3.27;;;2.23;;
489;SDS011;231;48.120;11.576;2023-04-28T11:40:28;2.50;;;2.30;;
489;SDS011;231;48.120;11.576;2023-04-28T11:42:55;4.37;;;3.20;;
489;SDS011;231;48.120;11.576;2023-04-28T11:45:25;5.10;;;3.50;;
489;SDS011;231;48.120;11.576;2023-04-28T11:47:52;3.40;;;3.20;;
489;SDS011;231;48.120;11.576;2023-04-28T11:50:33;4.00;;;3.80;;
489;SDS011;231;48.120;11.576;2023-04-28T11:53:00;3.40;;;3.20;;
489;SDS011;231;48.120;11.576;2023-04-28T11:55:28;3.43;;;3.23;;
489;SDS011;231;48.120;11.576;2023-04-28T12:03:40;2.87;;;2.67;;
489;SDS011;231;48.120;11.576;2023-04-28T12:06:08;3.37;;;3.17;;
489;SDS011;231;48.120;11.576;2023-04-28T12:08:35;5.30;;;2.90;;
489;SDS011;231;48.120;11.576;2023-04-28T12:11:09;2.67;;;2.50;;
489;SDS011;231;48.120;11.576;2023-04-28T12:13:37;2.70;;;2.50;;
489;SDS011;231;48.120;11.576;2023-04-28T12:16:05;1.93;;;1.83;;
489;SDS011;231;48.120;11.576;2023-04-28T12:18:33;2.33;;;2.13;;
489;SDS011;231;48.120;11.576;2023-04-28T12:21:01;2.00;;;1.90;;
489;SDS011;231;48.120;11.576;2023-04-28T12:23:29;1.60;;;1.50;;
489;SDS011;231;48.120;11.576;2023-04-28T12:25:57;1.90;;;1.80;;
489;SDS011;231;48.120;11.576;2023-04-28T12:28:34;1.30;;;1.20;;
489;SDS011;231;48.120;11.576;2023-04-28T12:31:04;2.13;;;1.90;;
489;SDS011;231;48.120;11.576;2023-04-28T12:33:34;1.90;;;1.80;;
489;SDS011;231;48.120;11.576;2023-04-28T12:36:02;2.30;;;2.10;;
489;SDS011;231;48.120;11.576;2023-04-28T12:38:31;1.70;;;1.60;;
489;SDS011;231;48.120;11.576;2023-04-28T12:40:58;2.30;;;2.13;;
489;SDS011;231;48.120;11.576;2023-04-28T12:43:25;2.30;;;1.60;;
489;SDS011;231;48.120;11.576;2023-04-28T12:45:53;2.13;;;1.97;;
489;SDS011;231;48.120;11.576;2023-04-28T12:48:21;1.90;;;1.80;;
489;SDS011;231;48.120;11.576;2023-04-28T12:50:50;1.43;;;1.40;;
489;SDS011;231;48.120;11.576;2023-04-28T12:53:17;1.23;;;1.23;;
489;SDS011;231;48.120;11.576;2023-04-28T12:55:44;1.73;;;1.63;;
489;SDS011;231;48.120;11.576;2023-04-28T12:58:10;1.47;;;1.37;;
489;SDS011;231;48.120;11.576;2023-04-28T13:00:37;1.47;;;1.10;;
489;SDS011;231;48.120;11.576;2023-04-28T13:03:05;1.90;;;1.30;;
489;SDS011;231;48.120;11.576;2023-04-28T13:05:32;1.93;;;1.77;;
489;SDS011;231;48.120;11.576;2023-04-28T13:08:00;1.60;;;1.43;;
489;SDS011;231;48.120;11.576;2023-04-28T13:10:28;1.50;;;1.40;;
489;SDS011;231;48.120;11.576;2023-04-28T13:12:55;1.43;;;1.30;;
489;SDS011;231;48.120;11.576;2023-04-28T13:15:22;1.43;;;1.10;;
489;SDS011;231;48.120;11.576;2023-04-28T13:17:48;2.70;;;1.10;;
489;SDS011;231;48.120;11.576;2023-04-28T13:20:15;1.50;;;1.40;;
489;SDS011;231;48.120;11.576;2023-04-28T13:22:42;1.20;;;1.10;;
489;SDS011;231;48.120;11.576;2023-04-28T13:25:10;1.07;;;0.97;;
489;SDS011;231;48.120;11.576;2023-04-28T13:27:37;0.90;;;0.83;;
489;SDS011;231;48.120;11.576;2023-04-28T13:30:04;0.83;;;0.77;;
489;SDS011;231;48.120;11.576;2023-04-28T13:32:32;0.80;;;0.70;;
489;SDS011;231;48.120;11.576;2023-04-28T13:34:59;0.90;;;0.80;;
489;SDS011;231;48.120;11.576;2023-04-28T13:37:26;0.70;;;0.70;;
489;SDS011;231;48.120;11.576;2023-04-28T13:39:53;0.50;;;0.50;;
489;SDS011;231;48.120;11.576;2023-04-28T13:42:22;0.60;;;0.60;;
489;SDS011;231;48.120;11.576;2023-04-28T13:48:09;0.70;;;0.60;;
489;SDS011;231;48.120;11.576;2023-04-28T13:50:36;0.70;;;0.60;;
489;SDS011;231;48.120;11.576;2023-04-28T13:53:03;0.83;;;0.73;;
489;SDS011;231;48.120;11.576;2023-04-28T13:55:36;0.60;;;0.60;;
489;SDS011;231;48.120;11.576;2023-04-28T13:58:04;0.90;;;0.80;;
489;SDS011;231;48.120;11.576;2023-04-28T14:00:31;2.70;;;1.00;;
489;SDS011;231;48.120;11.576;2023-04-28T14:02:59;0.60;;;0.60;;
489;SDS011;231;48.120;11.576;2023-04-28T14:05:26;0.90;;;0.80;;
489;SDS011;231;48.120;11.576;2023-04-28T14:07:53;0.70;;;0.60;;
489;SDS011;231;48.120;11.576;2023-04-28T14:10:20;0.57;;;0.57;;
489;SDS011;231;48.120;11.576;2023-04-28T14:12:47;0.80;;;0.73;;
489;SDS011;231;48.120;11.576;2023-04-28T14:15:15;0.93;;;0.73;;
489;SDS011;231;48.120;11.576;2023-04-28T14:17:43;1.10;;;0.60;;
489;SDS011;231;48.120;11.576;2023-04-28T14:20:10;1.43;;;0.80;;
489;SDS011;231;48.120;11.576;2023-04-28T14:22:37;0.63;;;0.60;;
489;SDS011;231;48.120;11.576;2023-04-28T14:25:04;0.77;;;0.70;;
489;SDS011;231;48.120;11.576;2023-04-28T14:27:32;0.57;;;0.40;;
489;SDS011;231;48.120;11.576;2023-04-28T14:29:59;0.73;;;0.67;;
489;SDS011;231;48.120;11.576;2023-04-28T14:32:27;0.77;;;0.60;;
489;SDS011;231;48.120;11.576;2023-04-28T14:34:54;1.27;;;0.63;;
489;SDS011;231;48.120;11.576;2023-04-28T14:37:21;0.90;;;0.80;;
489;SDS011;231;48.120;11.576;2023-04-28T14:39:48;0.80;;;0.73;;
489;SDS011;231;48.120;11.576;2023-04-28T14:42:15;0.70;;;0.70;;
489;SDS011;231;48.120;11.576;2023-04-28T14:44:42;0.73;;;0.70;;
489;SDS011;231;48.120;11.576;2023-04-28T14:47:10;0.57;;;0.53;;
489;SDS011;231;48.120;11.576;2023-04-28T14:49:39;2.73;;;0.97;;
489;SDS011;231;48.120;11.576;2023-04-28T14:52:05;1.37;;;0.80;;
489;SDS011;231;48.120;11.576;2023-04-28T14:54:33;0.90;;;0.90;;
489;SDS011;231;48.120;11.576;2023-04-28T14:57:00;1.03;;;0.93;;
489;SDS011;231;48.120;11.576;2023-04-28T14:59:28;1.00;;;0.90;;
489;SDS011;231;48.120;11.576;2023-04-28T15:01:55;0.90;;;0.80;;
489;SDS011;231;48.120;11.576;2023-04-28T15:04:22;1.30;;;1.00;;
489;SDS011;231;48.120;11.576;2023-04-28T15:06:54;1.63;;;0.90;;
489;SDS011;231;48.120;11.576;2023-04-28T15:09:23;1.20;;;1.10;;
489;SDS011;231;48.120;11.576;2023-04-28T15:11:50;1.13;;;0.73;;
489;SDS011;231;48.120;11.576;2023-04-28T15:14:17;0.87;;;0.77;;
489;SDS011;231;48.120;11.576;2023-04-28T15:16:44;2.93;;;1.30;;
489;SDS011;231;48.120;11.576;2023-04-28T15:19:12;1.07;;;0.97;;
489;SDS011;231;48.120;11.576;2023-04-28T15:21:39;1.33;;;1.23;;
489;SDS011;231;48.120;11.576;2023-04-28T15:24:08;0.93;;;0.83;;
489;SDS011;231;48.120;11.576;2023-04-28T15:26:35;0.90;;;0.80;;
489;SDS011;231;48.120;11.576;2023-04-28T15:29:02;0.80;;;0.80;;
489;SDS011;231;48.120;11.576;2023-04-28T15:31:29;1.77;;;1.30;;
489;SDS011;231;48.120;11.576;2023-04-28T15:33:56;1.80;;;1.10;;
489;SDS011;231;48.120;11.576;2023-04-28T15:36:23;1.40;;;1.30;;
489;SDS011;231;48.120;11.576;2023-04-28T15:38:50;1.27;;;1.17;;
489;SDS011;231;48.120;11.576;2023-04-28T15:41:19;0.83;;;0.73;;
489;SDS011;231;48.120;11.576;2023-04-28T15:43:46;1.20;;;1.10;;
489;SDS011;231;48.120;11.576;2023-04-28T15:46:14;1.20;;;1.10;;
489;SDS011;231;48.120;11.576;2023-04-28T15:48:41;1.13;;;0.90;;
489;SDS011;231;48.120;11.576;2023-04-28T15:51:10;1.53;;;1.43;;
489;SDS011;231;48.120;11.576;2023-04-28T15:53:41;2.53;;;2.30;;
489;SDS011;231;48.120;11.576;2023-04-28T15:56:07;1.37;;;1.30;;
489;SDS011;231;48.120;11.576;2023-04-28T15:58:36;1.50;;;1.40;;
489;SDS011;231;48.120;11.576;2023-04-28T16:01:03;1.63;;;1.47;;
489;SDS011;231;48.120;11.576;2023-04-28T16:03:30;1.97;;;1.20;;